QFA1106 YSSY-YMML
Flight info
| Callsign | QFA1106 |
|---|---|
| Flight time | N/A |
| Altitude | 38000 |
| Route | WOL H65 LEECE Q29 ML |
| Aircraft | BCS3/M-SBDE2E3GIRWXY/LB1 |
Departure
| Time | 2026-05-06 23:38 |
|---|---|
| Airport | Sydney Kingsford Smith International Airport (YSSY) |
Arrival
| Time | N/A |
|---|---|
| Airport | Melbourne Airport (YMML) |
| Time | Latitude | Longitude | Altitude | Speed | Heading |
|---|---|---|---|---|---|
| 2026-05-06 23:11 | -33.93556 | 151.18006 | 31 ft | 0 kts | 278° |
| 2026-05-06 23:27 | -33.93557 | 151.18007 | 31 ft | 2 kts | 278° |
| 2026-05-06 23:27 | -33.93560 | 151.18041 | 31 ft | 5 kts | 254° |
| 2026-05-06 23:28 | -33.93543 | 151.18060 | 29 ft | 0 kts | 192° |
| 2026-05-06 23:30 | -33.93623 | 151.18056 | 29 ft | 20 kts | 178° |
| 2026-05-06 23:31 | -33.93781 | 151.18019 | 31 ft | 25 kts | 245° |
| 2026-05-06 23:31 | -33.93811 | 151.17903 | 27 ft | 16 kts | 254° |
| 2026-05-06 23:31 | -33.93860 | 151.17693 | 20 ft | 35 kts | 255° |
| 2026-05-06 23:31 | -33.93940 | 151.17355 | 20 ft | 49 kts | 255° |
| 2026-05-06 23:32 | -33.94035 | 151.17224 | 24 ft | 14 kts | 161° |
| 2026-05-06 23:32 | -33.94176 | 151.17276 | 25 ft | 29 kts | 165° |
| 2026-05-06 23:32 | -33.94422 | 151.17340 | 27 ft | 39 kts | 167° |
| 2026-05-06 23:32 | -33.94616 | 151.17391 | 27 ft | 16 kts | 168° |
| 2026-05-06 23:33 | -33.94713 | 151.17417 | 29 ft | 13 kts | 167° |
| 2026-05-06 23:33 | -33.94797 | 151.17440 | 24 ft | 14 kts | 168° |
| 2026-05-06 23:33 | -33.94930 | 151.17472 | 20 ft | 25 kts | 169° |
| 2026-05-06 23:33 | -33.95101 | 151.17516 | 21 ft | 18 kts | 168° |
| 2026-05-06 23:34 | -33.95204 | 151.17544 | 19 ft | 10 kts | 167° |
| 2026-05-06 23:34 | -33.95306 | 151.17572 | 20 ft | 20 kts | 166° |
| 2026-05-06 23:34 | -33.95454 | 151.17609 | 21 ft | 17 kts | 168° |
| 2026-05-06 23:34 | -33.95547 | 151.17632 | 23 ft | 13 kts | 168° |
| 2026-05-06 23:35 | -33.95649 | 151.17659 | 27 ft | 10 kts | 167° |
| 2026-05-06 23:35 | -33.95749 | 151.17686 | 28 ft | 12 kts | 168° |
| 2026-05-06 23:35 | -33.95820 | 151.17705 | 26 ft | 11 kts | 166° |
| 2026-05-06 23:35 | -33.95893 | 151.17793 | 22 ft | 20 kts | 109° |
| 2026-05-06 23:36 | -33.95861 | 151.17915 | 24 ft | 8 kts | 10° |
| 2026-05-06 23:36 | -33.95838 | 151.17913 | 25 ft | 0 kts | 347° |
| 2026-05-06 23:36 | -33.95836 | 151.17912 | 25 ft | 0 kts | 347° |
| 2026-05-06 23:38 | -33.95805 | 151.17904 | 23 ft | 33 kts | 347° |
| 2026-05-06 23:38 | -33.95192 | 151.17744 | 27 ft | 145 kts | 348° |
| 2026-05-06 23:38 | -33.93916 | 151.17412 | 441 ft | 225 kts | 346° |
| 2026-05-06 23:38 | -33.92372 | 151.16963 | 771 ft | 234 kts | 342° |
| 2026-05-06 23:39 | -33.90969 | 151.15970 | 1341 ft | 236 kts | 304° |
| 2026-05-06 23:39 | -33.90494 | 151.14165 | 2677 ft | 227 kts | 262° |
| 2026-05-06 23:39 | -33.91219 | 151.12529 | 4417 ft | 227 kts | 227° |
| 2026-05-06 23:39 | -33.92372 | 151.11238 | 6201 ft | 230 kts | 230° |
| 2026-05-06 23:40 | -33.93458 | 151.09815 | 7797 ft | 232 kts | 237° |
| 2026-05-06 23:40 | -33.94425 | 151.08234 | 9298 ft | 237 kts | 243° |
| 2026-05-06 23:40 | -33.95298 | 151.06516 | 10612 ft | 247 kts | 248° |
| 2026-05-06 23:40 | -33.96134 | 151.04598 | 11529 ft | 269 kts | 251° |
| 2026-05-06 23:41 | -33.96968 | 151.02474 | 12519 ft | 290 kts | 252° |
| 2026-05-06 23:41 | -33.98013 | 151.00315 | 13562 ft | 321 kts | 235° |
| 2026-05-06 23:41 | -33.99961 | 150.98722 | 14622 ft | 354 kts | 215° |
| 2026-05-06 23:41 | -34.02284 | 150.97524 | 15707 ft | 371 kts | 210° |
| 2026-05-06 23:42 | -34.04767 | 150.96456 | 16815 ft | 384 kts | 207° |